KAP7023 KBOS-KHYA
Flight info
| Callsign | KAP7023 |
|---|---|
| Flight time | 0h 23m |
| Altitude | 3000 |
| Route | LOGAN4 DUNKK V141 GAILS |
| Aircraft | P212/L-SBDFGIRY/SB1 |
Departure
| Time | 2026-05-09 02:22 |
|---|---|
| Airport | Boston Logan International Airport (KBOS) |
Arrival
| Time | 2026-05-09 02:45 |
|---|---|
| Airport | Cape Cod Gateway Airport (KHYA) |
| Time | Latitude | Longitude | Altitude | Speed | Heading |
|---|---|---|---|---|---|
| 2026-05-09 01:58 | 42.36527 | -71.01528 | 19 ft | 0 kts | 301° |
| 2026-05-09 02:06 | 42.36528 | -71.01529 | 19 ft | 2 kts | 301° |
| 2026-05-09 02:06 | 42.36534 | -71.01549 | 19 ft | 3 kts | 256° |
| 2026-05-09 02:06 | 42.36531 | -71.01555 | 19 ft | 0 kts | 198° |
| 2026-05-09 02:14 | 42.36497 | -71.01580 | 19 ft | 9 kts | 209° |
| 2026-05-09 02:15 | 42.36435 | -71.01564 | 19 ft | 11 kts | 124° |
| 2026-05-09 02:15 | 42.36393 | -71.01467 | 19 ft | 13 kts | 115° |
| 2026-05-09 02:15 | 42.36353 | -71.01352 | 19 ft | 14 kts | 124° |
| 2026-05-09 02:15 | 42.36297 | -71.01230 | 19 ft | 17 kts | 122° |
| 2026-05-09 02:16 | 42.36237 | -71.01085 | 19 ft | 19 kts | 111° |
| 2026-05-09 02:16 | 42.36182 | -71.00912 | 19 ft | 20 kts | 113° |
| 2026-05-09 02:16 | 42.36132 | -71.00758 | 20 ft | 18 kts | 111° |
| 2026-05-09 02:16 | 42.36089 | -71.00593 | 19 ft | 20 kts | 110° |
| 2026-05-09 02:17 | 42.36043 | -71.00419 | 19 ft | 14 kts | 107° |
| 2026-05-09 02:17 | 42.36030 | -71.00364 | 19 ft | 0 kts | 108° |
| 2026-05-09 02:17 | 42.36029 | -71.00357 | 19 ft | 5 kts | 108° |
| 2026-05-09 02:17 | 42.36000 | -71.00237 | 19 ft | 18 kts | 109° |
| 2026-05-09 02:18 | 42.35956 | -71.00068 | 19 ft | 17 kts | 106° |
| 2026-05-09 02:18 | 42.35950 | -70.99990 | 19 ft | 0 kts | 83° |
| 2026-05-09 02:18 | 42.35950 | -70.99989 | 19 ft | 0 kts | 83° |
| 2026-05-09 02:18 | 42.35950 | -70.99988 | 19 ft | 0 kts | 82° |
| 2026-05-09 02:19 | 42.35958 | -70.99935 | 19 ft | 16 kts | 77° |
| 2026-05-09 02:19 | 42.35994 | -70.99734 | 19 ft | 26 kts | 75° |
| 2026-05-09 02:19 | 42.36039 | -70.99479 | 19 ft | 26 kts | 75° |
| 2026-05-09 02:19 | 42.36080 | -70.99251 | 19 ft | 26 kts | 77° |
| 2026-05-09 02:20 | 42.36125 | -70.98994 | 19 ft | 27 kts | 76° |
| 2026-05-09 02:20 | 42.36119 | -70.98848 | 19 ft | 12 kts | 158° |
| 2026-05-09 02:20 | 42.36104 | -70.98843 | 19 ft | 0 kts | 172° |
| 2026-05-09 02:21 | 42.36037 | -70.98827 | 19 ft | 18 kts | 180° |
| 2026-05-09 02:21 | 42.35990 | -70.98942 | 19 ft | 26 kts | 257° |
| 2026-05-09 02:21 | 42.35893 | -70.99502 | 19 ft | 96 kts | 256° |
| 2026-05-09 02:22 | 42.35703 | -71.00526 | 246 ft | 120 kts | 256° |
| 2026-05-09 02:22 | 42.35450 | -71.01611 | 745 ft | 115 kts | 238° |
| 2026-05-09 02:22 | 42.34803 | -71.02156 | 1360 ft | 109 kts | 204° |
| 2026-05-09 02:22 | 42.34103 | -71.02500 | 1935 ft | 105 kts | 206° |
| 2026-05-09 02:23 | 42.33430 | -71.02830 | 2475 ft | 103 kts | 206° |
| 2026-05-09 02:23 | 42.32725 | -71.03045 | 2982 ft | 111 kts | 180° |
| 2026-05-09 02:23 | 42.31933 | -71.02434 | 3049 ft | 154 kts | 131° |
| 2026-05-09 02:23 | 42.31275 | -71.01165 | 3056 ft | 169 kts | 133° |
| 2026-05-09 02:24 | 42.30454 | -71.00022 | 3053 ft | 170 kts | 136° |
| 2026-05-09 02:24 | 42.29650 | -70.98849 | 3047 ft | 170 kts | 134° |
| 2026-05-09 02:24 | 42.28868 | -70.97639 | 3043 ft | 171 kts | 133° |
| 2026-05-09 02:24 | 42.28091 | -70.96428 | 3049 ft | 171 kts | 133° |
| 2026-05-09 02:25 | 42.27312 | -70.95219 | 3045 ft | 171 kts | 133° |
| 2026-05-09 02:25 | 42.26530 | -70.94005 | 3044 ft | 171 kts | 133° |
| 2026-05-09 02:25 | 42.25751 | -70.92797 | 3045 ft | 171 kts | 133° |
| 2026-05-09 02:25 | 42.24969 | -70.91586 | 3030 ft | 171 kts | 133° |
| 2026-05-09 02:26 | 42.24186 | -70.90372 | 3031 ft | 172 kts | 133° |
| 2026-05-09 02:26 | 42.23399 | -70.89153 | 3002 ft | 173 kts | 133° |
| 2026-05-09 02:26 | 42.22613 | -70.87933 | 3004 ft | 172 kts | 133° |
| 2026-05-09 02:26 | 42.21828 | -70.86718 | 3000 ft | 172 kts | 133° |
| 2026-05-09 02:27 | 42.21045 | -70.85505 | 3006 ft | 171 kts | 133° |
| 2026-05-09 02:27 | 42.20259 | -70.84288 | 3007 ft | 172 kts | 133° |
| 2026-05-09 02:27 | 42.19486 | -70.83091 | 3011 ft | 171 kts | 134° |
| 2026-05-09 02:27 | 42.18700 | -70.81877 | 3015 ft | 172 kts | 134° |
| 2026-05-09 02:28 | 42.17914 | -70.80662 | 3014 ft | 172 kts | 134° |
| 2026-05-09 02:28 | 42.17127 | -70.79445 | 3016 ft | 172 kts | 134° |
| 2026-05-09 02:28 | 42.16344 | -70.78235 | 3020 ft | 172 kts | 134° |
| 2026-05-09 02:28 | 42.15556 | -70.77021 | 3022 ft | 172 kts | 134° |
| 2026-05-09 02:29 | 42.14768 | -70.75807 | 3021 ft | 171 kts | 134° |
| 2026-05-09 02:29 | 42.13985 | -70.74594 | 3022 ft | 172 kts | 134° |
| 2026-05-09 02:29 | 42.13201 | -70.73380 | 3021 ft | 171 kts | 134° |
| 2026-05-09 02:29 | 42.12417 | -70.72171 | 3018 ft | 171 kts | 134° |
| 2026-05-09 02:30 | 42.11637 | -70.70977 | 3019 ft | 171 kts | 134° |
| 2026-05-09 02:30 | 42.10855 | -70.69771 | 3017 ft | 171 kts | 134° |
| 2026-05-09 02:30 | 42.10073 | -70.68560 | 3016 ft | 171 kts | 134° |
| 2026-05-09 02:30 | 42.09288 | -70.67351 | 3017 ft | 171 kts | 134° |
| 2026-05-09 02:31 | 42.08503 | -70.66142 | 3017 ft | 171 kts | 134° |
| 2026-05-09 02:31 | 42.07668 | -70.65010 | 3014 ft | 170 kts | 142° |
| 2026-05-09 02:31 | 42.06777 | -70.63962 | 3016 ft | 170 kts | 142° |
| 2026-05-09 02:31 | 42.05892 | -70.62900 | 3015 ft | 170 kts | 141° |
| 2026-05-09 02:32 | 42.05009 | -70.61839 | 3015 ft | 171 kts | 142° |
| 2026-05-09 02:32 | 42.04121 | -70.60774 | 3013 ft | 171 kts | 142° |
| 2026-05-09 02:32 | 42.03235 | -70.59712 | 3015 ft | 171 kts | 142° |
| 2026-05-09 02:32 | 42.02348 | -70.58649 | 3010 ft | 171 kts | 142° |
| 2026-05-09 02:33 | 42.01459 | -70.57585 | 3013 ft | 171 kts | 142° |
| 2026-05-09 02:33 | 42.00624 | -70.56585 | 3010 ft | 171 kts | 142° |
| 2026-05-09 02:33 | 41.99735 | -70.55521 | 2990 ft | 172 kts | 142° |
| 2026-05-09 02:33 | 41.98844 | -70.54455 | 2989 ft | 171 kts | 142° |
| 2026-05-09 02:34 | 41.97964 | -70.53404 | 2985 ft | 171 kts | 142° |
| 2026-05-09 02:34 | 41.97069 | -70.52335 | 2975 ft | 171 kts | 142° |
| 2026-05-09 02:34 | 41.96182 | -70.51275 | 2977 ft | 171 kts | 141° |
| 2026-05-09 02:34 | 41.95291 | -70.50210 | 2977 ft | 171 kts | 142° |
| 2026-05-09 02:35 | 41.94400 | -70.49147 | 2975 ft | 171 kts | 142° |
| 2026-05-09 02:35 | 41.93510 | -70.48085 | 2974 ft | 171 kts | 142° |
| 2026-05-09 02:35 | 41.92619 | -70.47022 | 2972 ft | 171 kts | 142° |
| 2026-05-09 02:35 | 41.91729 | -70.45961 | 2972 ft | 171 kts | 142° |
| 2026-05-09 02:36 | 41.90840 | -70.44902 | 2973 ft | 171 kts | 141° |
| 2026-05-09 02:36 | 41.89949 | -70.43840 | 2969 ft | 171 kts | 142° |
| 2026-05-09 02:36 | 41.89059 | -70.42779 | 2968 ft | 172 kts | 142° |
| 2026-05-09 02:36 | 41.88166 | -70.41717 | 2966 ft | 171 kts | 142° |
| 2026-05-09 02:37 | 41.87274 | -70.40655 | 2967 ft | 171 kts | 142° |
| 2026-05-09 02:37 | 41.86284 | -70.39815 | 2964 ft | 167 kts | 161° |
| 2026-05-09 02:37 | 41.85212 | -70.39188 | 2968 ft | 168 kts | 160° |
| 2026-05-09 02:37 | 41.84154 | -70.38536 | 2967 ft | 168 kts | 159° |
| 2026-05-09 02:38 | 41.83236 | -70.37595 | 2964 ft | 168 kts | 136° |
| 2026-05-09 02:38 | 41.82449 | -70.36460 | 2787 ft | 169 kts | 135° |
| 2026-05-09 02:38 | 41.81651 | -70.35323 | 2430 ft | 165 kts | 135° |
| 2026-05-09 02:38 | 41.80871 | -70.34217 | 2067 ft | 161 kts | 135° |
| 2026-05-09 02:39 | 41.80120 | -70.33114 | 1709 ft | 159 kts | 131° |
| 2026-05-09 02:39 | 41.79448 | -70.31978 | 1479 ft | 147 kts | 130° |
| 2026-05-09 02:39 | 41.78839 | -70.30972 | 1462 ft | 134 kts | 132° |
| 2026-05-09 02:39 | 41.78252 | -70.30028 | 1489 ft | 132 kts | 132° |
| 2026-05-09 02:40 | 41.77657 | -70.29073 | 1495 ft | 135 kts | 132° |
| 2026-05-09 02:40 | 41.77053 | -70.28106 | 1493 ft | 136 kts | 132° |
| 2026-05-09 02:40 | 41.76437 | -70.27119 | 1434 ft | 140 kts | 132° |
| 2026-05-09 02:40 | 41.75809 | -70.26111 | 1371 ft | 141 kts | 132° |
| 2026-05-09 02:41 | 41.75180 | -70.25103 | 1312 ft | 140 kts | 132° |
| 2026-05-09 02:41 | 41.74577 | -70.24134 | 1303 ft | 131 kts | 133° |
| 2026-05-09 02:41 | 41.74004 | -70.23216 | 1297 ft | 126 kts | 133° |
| 2026-05-09 02:41 | 41.73451 | -70.22330 | 1291 ft | 122 kts | 133° |
| 2026-05-09 02:42 | 41.72919 | -70.21480 | 1293 ft | 120 kts | 133° |
| 2026-05-09 02:42 | 41.72285 | -70.20844 | 1296 ft | 110 kts | 167° |
| 2026-05-09 02:42 | 41.71558 | -70.20789 | 1292 ft | 103 kts | 198° |
| 2026-05-09 02:42 | 41.70939 | -70.21209 | 1301 ft | 100 kts | 226° |
| 2026-05-09 02:43 | 41.70446 | -70.21892 | 1205 ft | 103 kts | 232° |
| 2026-05-09 02:43 | 41.69981 | -70.22634 | 993 ft | 97 kts | 233° |
| 2026-05-09 02:43 | 41.69575 | -70.23299 | 815 ft | 89 kts | 234° |
| 2026-05-09 02:43 | 41.69203 | -70.23917 | 653 ft | 83 kts | 233° |
| 2026-05-09 02:44 | 41.68948 | -70.24301 | 573 ft | 84 kts | 232° |
| 2026-05-09 02:44 | 41.68446 | -70.25097 | 383 ft | 83 kts | 233° |
| 2026-05-09 02:44 | 41.68202 | -70.25498 | 316 ft | 82 kts | 232° |
| 2026-05-09 02:44 | 41.67841 | -70.26087 | 242 ft | 83 kts | 232° |
| 2026-05-09 02:45 | 41.67467 | -70.26682 | 144 ft | 84 kts | 230° |
| 2026-05-09 02:45 | 41.67109 | -70.27247 | 63 ft | 73 kts | 231° |
| 2026-05-09 02:45 | 41.66825 | -70.27705 | 56 ft | 57 kts | 230° |
| 2026-05-09 02:45 | 41.66600 | -70.28055 | 61 ft | 37 kts | 230° |
| 2026-05-09 02:46 | 41.66500 | -70.28209 | 64 ft | 14 kts | 232° |
| 2026-05-09 02:46 | 41.66493 | -70.28273 | 64 ft | 4 kts | 324° |
| 2026-05-09 02:46 | 41.66521 | -70.28302 | 64 ft | 7 kts | 319° |
| 2026-05-09 02:46 | 41.66581 | -70.28370 | 61 ft | 15 kts | 319° |
| 2026-05-09 02:47 | 41.66659 | -70.28488 | 58 ft | 18 kts | 281° |
| 2026-05-09 02:47 | 41.66684 | -70.28607 | 60 ft | 8 kts | 316° |
| 2026-05-09 02:47 | 41.66702 | -70.28628 | 60 ft | 0 kts | 321° |